createdAt,value
2018-04-18T00:00:06.077Z,42.50
2018-04-18T00:00:38.166Z,42.60
2018-04-18T00:01:10.191Z,42.60
2018-04-18T00:01:42.231Z,42.60
2018-04-18T00:02:14.254Z,42.60
2018-04-18T00:02:47.057Z,42.60
2018-04-18T00:03:19.098Z,42.60
2018-04-18T00:03:51.131Z,42.60
2018-04-18T00:04:23.935Z,42.60
2018-04-18T00:04:55.958Z,42.60
2018-04-18T00:05:27.989Z,42.60
2018-04-18T00:06:00.774Z,42.60
2018-04-18T00:06:32.811Z,42.60
2018-04-18T00:07:05.602Z,42.70
2018-04-18T00:07:37.615Z,42.70
2018-04-18T00:08:09.979Z,42.60
2018-04-18T00:08:42.027Z,42.60
2018-04-18T00:09:14.092Z,42.60
2018-04-18T00:09:46.169Z,42.50
2018-04-18T00:10:18.203Z,42.60
2018-04-18T00:10:50.995Z,42.60
2018-04-18T00:11:23.051Z,42.60
2018-04-18T00:11:55.053Z,42.60
2018-04-18T00:12:27.088Z,42.60
2018-04-18T00:12:59.120Z,42.60
2018-04-18T00:13:31.149Z,42.60
2018-04-18T00:14:03.176Z,42.60
2018-04-18T00:14:35.943Z,42.60
2018-04-18T00:15:08.743Z,42.60
2018-04-18T00:15:40.760Z,42.50
2018-04-18T00:16:13.553Z,42.60
2018-04-18T00:16:45.619Z,43.30
2018-04-18T00:17:17.636Z,42.50
2018-04-18T00:17:50.479Z,42.50
2018-04-18T00:18:22.511Z,42.50
2018-04-18T00:18:54.538Z,42.40
2018-04-18T00:19:26.580Z,42.40
2018-04-18T00:19:58.623Z,42.50
2018-04-18T00:20:30.672Z,42.50
2018-04-18T00:21:02.695Z,42.40
2018-04-18T00:21:34.738Z,42.40
2018-04-18T00:22:06.767Z,42.40
2018-04-18T00:22:38.780Z,42.40
2018-04-18T00:23:10.814Z,42.60
2018-04-18T00:23:43.633Z,42.50
2018-04-18T00:24:15.653Z,42.50
2018-04-18T00:24:47.691Z,42.60
2018-04-18T00:25:20.483Z,42.60
2018-04-18T00:25:52.534Z,42.60
2018-04-18T00:26:24.553Z,42.70
2018-04-18T00:26:56.655Z,42.60
2018-04-18T00:27:29.390Z,42.70
2018-04-18T00:28:01.440Z,42.60
2018-04-18T00:28:34.235Z,42.70
2018-04-18T00:29:06.235Z,42.70
2018-04-18T00:29:38.253Z,42.70
2018-04-18T00:30:10.297Z,42.80
2018-04-18T00:30:42.310Z,42.70
2018-04-18T00:31:14.370Z,42.80
2018-04-18T00:31:46.391Z,42.70
2018-04-18T00:32:19.174Z,42.70
2018-04-18T00:32:51.959Z,42.80
2018-04-18T00:33:23.990Z,42.70
2018-04-18T00:33:56.781Z,42.50
2018-04-18T00:34:28.893Z,42.50
2018-04-18T00:35:00.886Z,42.70
2018-04-18T00:35:32.909Z,42.70
2018-04-18T00:36:05.694Z,42.70
2018-04-18T00:36:38.493Z,42.60
2018-04-18T00:37:10.562Z,42.60
2018-04-18T00:37:42.578Z,42.60
2018-04-18T00:38:14.634Z,42.50
2018-04-18T00:38:46.682Z,42.60
2018-04-18T00:39:18.715Z,43.40
2018-04-18T00:39:51.506Z,42.40
2018-04-18T00:40:23.562Z,42.40
2018-04-18T00:40:55.837Z,42.50
2018-04-18T00:41:27.842Z,42.50
2018-04-18T00:42:00.633Z,42.60
2018-04-18T00:42:32.662Z,42.60
2018-04-18T00:43:05.435Z,42.50
2018-04-18T00:43:38.248Z,42.50
2018-04-18T00:44:10.271Z,42.50
2018-04-18T00:44:42.300Z,42.50
2018-04-18T00:45:15.083Z,42.50
2018-04-18T00:45:47.115Z,42.40
2018-04-18T00:46:19.901Z,42.50
2018-04-18T00:46:52.695Z,42.50
2018-04-18T00:47:24.714Z,42.50
2018-04-18T00:47:57.507Z,42.50
2018-04-18T00:48:29.524Z,42.40
2018-04-18T00:49:02.321Z,42.50
2018-04-18T00:49:34.359Z,42.40
2018-04-18T00:50:06.410Z,42.40
2018-04-18T00:50:38.533Z,42.50
2018-04-18T00:51:10.514Z,42.50
2018-04-18T00:51:42.553Z,42.50
2018-04-18T00:52:15.336Z,42.50
2018-04-18T00:52:47.378Z,42.50
2018-04-18T00:53:19.414Z,42.50
2018-04-18T00:53:51.434Z,42.40
2018-04-18T00:54:23.465Z,42.50
2018-04-18T00:54:55.523Z,42.30
2018-04-18T00:55:27.540Z,42.50
2018-04-18T00:55:59.569Z,42.50
2018-04-18T00:56:31.590Z,42.50
2018-04-18T00:57:03.615Z,42.50
2018-04-18T00:57:35.639Z,42.50
2018-04-18T00:58:08.435Z,42.60
2018-04-18T00:58:40.463Z,42.50
2018-04-18T00:59:13.264Z,42.50
2018-04-18T00:59:45.302Z,42.40
2018-04-18T01:00:17.331Z,42.50
2018-04-18T01:00:49.364Z,42.60
2018-04-18T01:01:21.383Z,42.50
2018-04-18T01:01:53.414Z,42.50
2018-04-18T01:02:25.442Z,42.50
2018-04-18T01:02:57.482Z,42.50
2018-04-18T01:03:30.273Z,42.50
2018-04-18T01:04:02.289Z,42.50
2018-04-18T01:04:34.322Z,42.50
2018-04-18T01:05:06.363Z,42.60
2018-04-18T01:05:38.382Z,42.60
2018-04-18T01:06:10.398Z,42.50
2018-04-18T01:06:43.179Z,42.50
2018-04-18T01:07:15.978Z,42.50
2018-04-18T01:07:48.005Z,42.40
2018-04-18T01:08:20.782Z,42.60
2018-04-18T01:08:52.806Z,42.50
2018-04-18T01:09:25.613Z,42.50
2018-04-18T01:09:57.637Z,42.40
2018-04-18T01:10:30.453Z,42.30
2018-04-18T01:11:02.494Z,42.30
2018-04-18T01:11:34.515Z,42.50
2018-04-18T01:12:07.326Z,42.60
2018-04-18T01:12:39.336Z,42.60
2018-04-18T01:13:11.380Z,42.40
2018-04-18T01:13:44.194Z,42.50
2018-04-18T01:14:16.209Z,42.50
2018-04-18T01:14:48.241Z,42.50
2018-04-18T01:15:20.254Z,42.60
2018-04-18T01:15:52.301Z,42.60
2018-04-18T01:16:24.320Z,42.50
2018-04-18T01:16:56.344Z,42.50
2018-04-18T01:17:28.376Z,42.40
2018-04-18T01:18:00.398Z,42.50
2018-04-18T01:18:32.423Z,42.50
2018-04-18T01:19:04.447Z,42.50
2018-04-18T01:19:36.467Z,42.50
2018-04-18T01:20:08.498Z,42.60
2018-04-18T01:20:40.536Z,42.50
2018-04-18T01:21:12.567Z,42.40
2018-04-18T01:21:45.396Z,42.40
2018-04-18T01:22:17.411Z,42.40
2018-04-18T01:22:49.447Z,42.40
2018-04-18T01:23:21.482Z,42.40
2018-04-18T01:23:54.265Z,42.60
2018-04-18T01:24:26.293Z,42.50
2018-04-18T01:24:59.087Z,42.50
2018-04-18T01:25:31.116Z,42.40
2018-04-18T01:26:03.908Z,42.40
2018-04-18T01:26:35.936Z,42.30
2018-04-18T01:27:08.736Z,42.60
2018-04-18T01:27:40.780Z,42.50
2018-04-18T01:28:12.829Z,42.50
2018-04-18T01:28:45.640Z,42.50
2018-04-18T01:29:17.705Z,42.40
2018-04-18T01:29:49.708Z,42.50
2018-04-18T01:30:21.731Z,42.50
2018-04-18T01:30:53.745Z,42.60
2018-04-18T01:31:25.775Z,43.20
2018-04-18T01:31:57.799Z,42.40
2018-04-18T01:32:29.832Z,42.60
2018-04-18T01:33:01.859Z,42.50
2018-04-18T01:33:33.894Z,43.30
2018-04-18T01:34:05.909Z,42.50
2018-04-18T01:34:38.029Z,42.50
2018-04-18T01:35:10.032Z,42.50
2018-04-18T01:35:42.053Z,42.40
2018-04-18T01:36:14.858Z,42.50
2018-04-18T01:36:46.866Z,42.30
2018-04-18T01:37:19.691Z,42.50
2018-04-18T01:37:51.701Z,43.20
2018-04-18T01:38:24.520Z,42.50
2018-04-18T01:38:56.540Z,42.50
2018-04-18T01:39:28.565Z,42.50
2018-04-18T01:40:01.409Z,42.50
2018-04-18T01:40:33.405Z,42.50
2018-04-18T01:41:05.431Z,42.60
2018-04-18T01:41:37.463Z,42.60
2018-04-18T01:42:09.520Z,42.50
2018-04-18T01:42:41.537Z,42.60
2018-04-18T01:43:13.582Z,42.60
2018-04-18T01:43:45.673Z,42.60
2018-04-18T01:44:17.692Z,42.70
2018-04-18T01:44:49.724Z,42.70
2018-04-18T01:45:21.731Z,42.80
2018-04-18T01:45:53.754Z,42.70
2018-04-18T01:46:25.762Z,42.70
2018-04-18T01:46:57.790Z,42.60
2018-04-18T01:47:30.590Z,42.50
2018-04-18T01:48:02.611Z,42.50
2018-04-18T01:48:35.418Z,42.60
2018-04-18T01:49:07.455Z,42.60
2018-04-18T01:49:39.492Z,42.50
2018-04-18T01:50:12.289Z,42.60
2018-04-18T01:50:44.313Z,42.50
2018-04-18T01:51:16.398Z,42.60
2018-04-18T01:51:48.444Z,42.80
2018-04-18T01:52:20.476Z,42.70
2018-04-18T01:52:52.515Z,42.90
2018-04-18T01:53:25.308Z,42.80
2018-04-18T01:53:57.343Z,42.80
2018-04-18T01:54:30.139Z,42.70
2018-04-18T01:55:02.157Z,42.70
2018-04-18T01:55:34.949Z,42.80
2018-04-18T01:56:06.988Z,42.80
2018-04-18T01:56:39.000Z,42.90
2018-04-18T01:57:11.032Z,42.90
2018-04-18T01:57:43.053Z,42.90
2018-04-18T01:58:15.072Z,43.00
2018-04-18T01:58:47.868Z,42.90
2018-04-18T01:59:19.965Z,42.80
2018-04-18T01:59:51.965Z,42.90
2018-04-18T02:00:23.993Z,42.90
2018-04-18T02:00:56.799Z,42.90
2018-04-18T02:01:28.818Z,42.90
2018-04-18T02:02:01.645Z,42.90
2018-04-18T02:02:33.648Z,42.80
2018-04-18T02:03:05.668Z,42.80
2018-04-18T02:03:37.696Z,42.90
2018-04-18T02:04:09.751Z,42.80
2018-04-18T02:04:41.759Z,42.80
2018-04-18T02:05:13.788Z,42.80
2018-04-18T02:05:46.575Z,42.90
2018-04-18T02:06:18.601Z,42.80
2018-04-18T02:06:50.618Z,42.80
2018-04-18T02:07:22.655Z,42.90
2018-04-18T02:07:54.693Z,42.90
2018-04-18T02:08:26.704Z,42.80
2018-04-18T02:08:58.723Z,42.70
2018-04-18T02:09:30.779Z,42.80
2018-04-18T02:10:02.817Z,42.70
2018-04-18T02:10:34.843Z,42.70
2018-04-18T02:11:06.860Z,42.80
2018-04-18T02:11:39.650Z,42.90
2018-04-18T02:12:11.679Z,42.80
2018-04-18T02:12:43.709Z,42.80
2018-04-18T02:13:15.766Z,42.90
2018-04-18T02:13:47.800Z,42.80
2018-04-18T02:14:19.806Z,42.70
2018-04-18T02:14:52.616Z,42.80
2018-04-18T02:15:24.626Z,42.80
2018-04-18T02:15:56.650Z,42.70
2018-04-18T02:16:28.708Z,42.60
2018-04-18T02:17:00.728Z,42.40
2018-04-18T02:17:32.753Z,42.70
2018-04-18T02:18:04.784Z,42.60
2018-04-18T02:18:36.812Z,42.60
2018-04-18T02:19:08.839Z,42.50
2018-04-18T02:19:40.878Z,42.50
2018-04-18T02:20:12.922Z,42.50
2018-04-18T02:20:44.955Z,42.60
2018-04-18T02:21:17.085Z,42.60
2018-04-18T02:21:49.881Z,42.70
2018-04-18T02:22:21.893Z,42.70
2018-04-18T02:22:53.939Z,42.80
2018-04-18T02:23:25.962Z,42.80
2018-04-18T02:23:57.988Z,42.80
2018-04-18T02:24:30.012Z,42.70
2018-04-18T02:25:02.842Z,42.90
2018-04-18T02:25:34.859Z,42.80
2018-04-18T02:26:06.922Z,42.90
2018-04-18T02:26:38.917Z,42.90
2018-04-18T02:27:11.695Z,42.80
2018-04-18T02:27:44.512Z,42.90
2018-04-18T02:28:16.535Z,42.80
2018-04-18T02:28:48.575Z,42.90
2018-04-18T02:29:21.355Z,42.80
2018-04-18T02:29:53.420Z,42.80
2018-04-18T02:30:25.445Z,42.80
2018-04-18T02:30:58.213Z,42.90
2018-04-18T02:31:31.028Z,42.80
2018-04-18T02:32:03.048Z,42.80
2018-04-18T02:32:35.098Z,42.80
2018-04-18T02:33:07.167Z,42.80
2018-04-18T02:33:39.930Z,42.80
2018-04-18T02:34:11.952Z,43.60
2018-04-18T02:34:44.744Z,42.70
2018-04-18T02:35:16.769Z,42.60
2018-04-18T02:35:49.561Z,42.70
2018-04-18T02:36:21.637Z,42.60
2018-04-18T02:36:53.640Z,42.70
2018-04-18T02:37:25.672Z,42.60
2018-04-18T02:37:57.727Z,42.60
2018-04-18T02:38:29.752Z,42.60
2018-04-18T02:39:01.773Z,42.60
2018-04-18T02:39:34.566Z,42.70
2018-04-18T02:40:06.589Z,42.70
2018-04-18T02:40:38.631Z,42.60
2018-04-18T02:41:10.648Z,42.60
2018-04-18T02:41:42.683Z,42.60
2018-04-18T02:42:14.726Z,42.60
2018-04-18T02:42:46.769Z,42.60
2018-04-18T02:43:18.803Z,42.60
2018-04-18T02:43:50.845Z,42.60
2018-04-18T02:44:22.859Z,42.50
2018-04-18T02:44:54.879Z,43.50
2018-04-18T02:45:26.903Z,42.70
2018-04-18T02:45:58.947Z,42.60
2018-04-18T02:46:30.980Z,42.70
2018-04-18T02:47:03.777Z,42.60
2018-04-18T02:47:35.813Z,42.60
2018-04-18T02:48:08.608Z,42.60
2018-04-18T02:48:40.627Z,42.50
2018-04-18T02:49:13.439Z,42.50
2018-04-18T02:49:45.476Z,42.50
2018-04-18T02:50:17.491Z,42.60
2018-04-18T02:50:50.274Z,42.60
2018-04-18T02:51:22.396Z,42.60
2018-04-18T02:51:54.400Z,42.60
2018-04-18T02:52:26.436Z,42.50
2018-04-18T02:52:58.452Z,42.60
2018-04-18T02:53:30.478Z,42.50
2018-04-18T02:54:02.510Z,42.40
2018-04-18T02:54:34.552Z,42.50
2018-04-18T02:55:06.574Z,42.60
2018-04-18T02:55:39.383Z,42.50
2018-04-18T02:56:11.408Z,42.50
2018-04-18T02:56:43.448Z,42.50
2018-04-18T02:57:16.274Z,42.60
2018-04-18T02:57:48.273Z,42.60
2018-04-18T02:58:20.298Z,42.60
2018-04-18T02:58:53.091Z,42.50
2018-04-18T02:59:25.112Z,42.50
2018-04-18T02:59:57.155Z,42.40
2018-04-18T03:00:29.217Z,42.50
2018-04-18T03:01:01.231Z,42.40
2018-04-18T03:01:33.266Z,42.60
2018-04-18T03:02:05.285Z,42.40
2018-04-18T03:02:38.071Z,42.50
2018-04-18T03:03:10.092Z,42.50
2018-04-18T03:03:42.122Z,42.50
2018-04-18T03:04:14.180Z,42.40
2018-04-18T03:04:46.196Z,42.30
2018-04-18T03:05:18.215Z,42.40
2018-04-18T03:05:51.025Z,42.30
2018-04-18T03:06:23.051Z,42.20
2018-04-18T03:06:55.065Z,42.30
2018-04-18T03:07:27.130Z,42.40
2018-04-18T03:07:59.139Z,42.50
2018-04-18T03:08:31.178Z,42.40
2018-04-18T03:09:03.232Z,42.50
2018-04-18T03:09:35.252Z,42.50
2018-04-18T03:10:07.290Z,42.50
2018-04-18T03:10:40.075Z,42.60
2018-04-18T03:11:12.124Z,42.50
2018-04-18T03:11:44.161Z,42.50
2018-04-18T03:12:16.953Z,42.50
2018-04-18T03:12:48.976Z,42.40
2018-04-18T03:13:21.763Z,42.60
2018-04-18T03:13:53.834Z,42.60
2018-04-18T03:14:25.863Z,42.60
2018-04-18T03:14:57.919Z,42.50
2018-04-18T03:15:29.943Z,42.50
2018-04-18T03:16:01.964Z,42.40
2018-04-18T03:16:33.998Z,42.30
2018-04-18T03:17:06.014Z,42.40
2018-04-18T03:17:38.040Z,42.40
2018-04-18T03:18:10.083Z,42.40
2018-04-18T03:18:42.149Z,42.40
2018-04-18T03:19:14.174Z,42.40
2018-04-18T03:19:46.197Z,42.30
2018-04-18T03:20:18.217Z,42.50
2018-04-18T03:20:51.014Z,42.50
2018-04-18T03:21:23.055Z,42.40
2018-04-18T03:21:55.115Z,42.30
2018-04-18T03:22:27.135Z,42.40
2018-04-18T03:22:59.925Z,42.40
2018-04-18T03:23:31.954Z,42.20
2018-04-18T03:24:04.754Z,42.40
2018-04-18T03:24:36.786Z,42.40
2018-04-18T03:25:08.823Z,42.40
2018-04-18T03:25:41.626Z,42.30
2018-04-18T03:26:13.672Z,42.30
2018-04-18T03:26:46.446Z,42.30
2018-04-18T03:27:18.466Z,42.30
2018-04-18T03:27:51.272Z,42.30
2018-04-18T03:28:23.282Z,42.20
2018-04-18T03:28:56.077Z,42.30
2018-04-18T03:29:28.108Z,42.30
2018-04-18T03:30:00.904Z,42.20
2018-04-18T03:30:32.957Z,42.30
2018-04-18T03:31:05.016Z,42.20
2018-04-18T03:31:37.086Z,42.30
2018-04-18T03:32:09.103Z,42.20
2018-04-18T03:32:41.137Z,42.30
2018-04-18T03:33:13.959Z,42.30
2018-04-18T03:33:45.985Z,42.20
2018-04-18T03:34:18.005Z,42.10
2018-04-18T03:34:50.802Z,42.20
2018-04-18T03:35:22.833Z,42.20
2018-04-18T03:35:55.643Z,42.00
2018-04-18T03:36:27.680Z,42.00
2018-04-18T03:36:59.703Z,42.00
2018-04-18T03:37:32.523Z,42.00
2018-04-18T03:38:04.530Z,42.00
2018-04-18T03:38:36.585Z,41.90
2018-04-18T03:39:09.370Z,41.80
2018-04-18T03:39:41.395Z,41.80
2018-04-18T03:40:14.228Z,41.90
2018-04-18T03:40:46.299Z,41.70
2018-04-18T03:41:18.263Z,41.70
2018-04-18T03:41:51.074Z,41.70
2018-04-18T03:42:23.098Z,41.70
2018-04-18T03:42:55.134Z,41.60
2018-04-18T03:43:27.922Z,41.70
2018-04-18T03:43:59.965Z,41.60
2018-04-18T03:44:31.998Z,41.60
2018-04-18T03:45:04.057Z,41.60
2018-04-18T03:45:36.862Z,41.60
2018-04-18T03:46:08.901Z,41.60
2018-04-18T03:46:40.929Z,41.50
2018-04-18T03:47:13.712Z,41.60
2018-04-18T03:47:46.507Z,41.70
2018-04-18T03:48:18.520Z,41.50
2018-04-18T03:48:51.313Z,41.50
2018-04-18T03:49:23.339Z,41.50
2018-04-18T03:49:56.154Z,41.50
2018-04-18T03:50:28.207Z,41.50
2018-04-18T03:51:00.255Z,41.80
2018-04-18T03:51:32.287Z,41.70
2018-04-18T03:52:05.068Z,41.60
2018-04-18T03:52:37.082Z,41.60
2018-04-18T03:53:09.879Z,41.70
2018-04-18T03:53:41.899Z,41.60
2018-04-18T03:54:13.938Z,41.60
2018-04-18T03:54:45.981Z,41.70
2018-04-18T03:55:18.001Z,41.50
2018-04-18T03:55:50.023Z,41.50
2018-04-18T03:56:22.836Z,41.60
2018-04-18T03:56:55.072Z,41.50
2018-04-18T03:57:27.131Z,41.50
2018-04-18T03:57:59.191Z,41.50
2018-04-18T03:58:31.210Z,41.40
2018-04-18T03:59:03.231Z,41.40
2018-04-18T03:59:36.024Z,41.60
2018-04-18T04:00:08.051Z,41.50
2018-04-18T04:00:40.839Z,41.50
2018-04-18T04:01:12.886Z,41.50
2018-04-18T04:01:44.924Z,41.40
2018-04-18T04:02:16.936Z,41.50
2018-04-18T04:02:48.997Z,41.30
2018-04-18T04:03:21.030Z,41.20
2018-04-18T04:03:53.081Z,41.10
2018-04-18T04:04:25.121Z,41.20
2018-04-18T04:04:57.128Z,41.40
2018-04-18T04:05:29.923Z,41.60
2018-04-18T04:06:01.932Z,41.60
2018-04-18T04:06:33.951Z,41.60
2018-04-18T04:07:05.999Z,41.70
2018-04-18T04:07:38.055Z,41.80
2018-04-18T04:08:10.074Z,41.90
2018-04-18T04:08:42.855Z,41.80
2018-04-18T04:09:14.881Z,41.70
2018-04-18T04:09:47.668Z,41.90
2018-04-18T04:10:19.706Z,41.80
2018-04-18T04:10:52.486Z,41.90
2018-04-18T04:11:24.600Z,41.80
2018-04-18T04:11:56.583Z,41.80
2018-04-18T04:12:28.638Z,41.70
2018-04-18T04:13:00.655Z,41.70
2018-04-18T04:13:32.667Z,41.70
2018-04-18T04:14:04.692Z,41.70
2018-04-18T04:14:36.719Z,41.70
2018-04-18T04:15:09.515Z,41.80
2018-04-18T04:15:41.546Z,41.70
2018-04-18T04:16:14.342Z,41.60
2018-04-18T04:16:46.362Z,41.60
2018-04-18T04:17:18.438Z,41.50
2018-04-18T04:17:50.477Z,41.50
2018-04-18T04:18:22.529Z,41.50
2018-04-18T04:18:55.336Z,41.30
2018-04-18T04:19:27.392Z,41.30
2018-04-18T04:19:59.426Z,41.40
2018-04-18T04:20:31.449Z,41.50
2018-04-18T04:21:04.263Z,41.60
2018-04-18T04:21:36.275Z,41.50
2018-04-18T04:22:08.298Z,41.60
2018-04-18T04:22:40.333Z,41.70
2018-04-18T04:23:12.354Z,41.40
2018-04-18T04:23:44.389Z,41.60
2018-04-18T04:24:16.432Z,41.60
2018-04-18T04:24:48.516Z,41.70
2018-04-18T04:25:20.512Z,41.50
2018-04-18T04:25:53.318Z,41.50
2018-04-18T04:26:25.340Z,41.50
2018-04-18T04:26:58.124Z,41.50
2018-04-18T04:27:30.153Z,41.50
2018-04-18T04:28:02.171Z,42.30
2018-04-18T04:28:34.199Z,41.40
2018-04-18T04:29:06.229Z,41.40
2018-04-18T04:29:38.253Z,41.40
2018-04-18T04:30:10.278Z,41.30
2018-04-18T04:30:42.318Z,42.20
2018-04-18T04:31:14.372Z,43.60
2018-04-18T04:31:46.404Z,44.20
2018-04-18T04:32:18.429Z,44.40
2018-04-18T04:32:51.263Z,45.00
2018-04-18T04:33:23.291Z,45.00
2018-04-18T04:33:55.302Z,45.30
2018-04-18T04:34:27.331Z,45.40
2018-04-18T04:34:59.356Z,45.70
2018-04-18T04:35:31.384Z,46.30
2018-04-18T04:36:03.423Z,46.10
2018-04-18T04:36:35.451Z,45.90
2018-04-18T04:37:08.245Z,46.30
2018-04-18T04:37:40.273Z,46.30
2018-04-18T04:38:13.069Z,46.50
2018-04-18T04:38:45.170Z,46.40
2018-04-18T04:39:17.162Z,46.80
2018-04-18T04:39:49.199Z,46.60
2018-04-18T04:40:22.024Z,46.70
2018-04-18T04:40:54.051Z,46.70
2018-04-18T04:41:26.094Z,46.70
2018-04-18T04:41:58.122Z,46.80
2018-04-18T04:42:30.910Z,46.80
2018-04-18T04:43:02.937Z,46.80
2018-04-18T04:43:35.740Z,47.10
2018-04-18T04:44:07.814Z,47.00
2018-04-18T04:44:39.844Z,47.30
2018-04-18T04:45:11.888Z,47.10
2018-04-18T04:45:43.915Z,47.10
2018-04-18T04:46:16.729Z,47.30
2018-04-18T04:46:48.734Z,47.20
2018-04-18T04:47:21.521Z,47.30
2018-04-18T04:47:53.572Z,47.20
2018-04-18T04:48:25.585Z,47.20
2018-04-18T04:48:57.648Z,47.30
2018-04-18T04:49:30.443Z,47.50
2018-04-18T04:50:02.473Z,47.50
2018-04-18T04:50:35.278Z,47.60
2018-04-18T04:51:07.295Z,47.50
2018-04-18T04:51:40.076Z,47.70
2018-04-18T04:52:12.118Z,47.60
2018-04-18T04:52:44.939Z,47.60
2018-04-18T04:53:17.166Z,47.60
2018-04-18T04:53:49.235Z,47.50
2018-04-18T04:54:21.263Z,47.20
2018-04-18T04:54:53.289Z,47.10
2018-04-18T04:55:26.079Z,47.10
2018-04-18T04:55:58.106Z,47.00
2018-04-18T04:56:30.937Z,47.20
2018-04-18T04:57:02.930Z,47.10
2018-04-18T04:57:35.720Z,47.00
2018-04-18T04:58:07.756Z,47.00
2018-04-18T04:58:39.779Z,47.10
2018-04-18T04:59:11.817Z,47.10
2018-04-18T04:59:43.855Z,46.90
2018-04-18T05:00:15.867Z,46.90
2018-04-18T05:00:47.896Z,46.90
2018-04-18T05:01:19.919Z,46.80
2018-04-18T05:01:51.958Z,47.40
2018-04-18T05:02:23.980Z,46.80
2018-04-18T05:02:56.003Z,46.70
2018-04-18T05:03:28.816Z,46.40
2018-04-18T05:04:00.843Z,46.40
2018-04-18T05:04:32.931Z,46.40
2018-04-18T05:05:04.976Z,46.40
2018-04-18T05:05:36.977Z,46.30
2018-04-18T05:06:09.013Z,46.30
2018-04-18T05:06:41.031Z,46.30
2018-04-18T05:07:13.082Z,46.20
2018-04-18T05:07:45.090Z,46.20
2018-04-18T05:08:17.870Z,46.30
2018-04-18T05:08:50.671Z,46.10
2018-04-18T05:09:22.682Z,46.10
2018-04-18T05:09:55.508Z,46.10
2018-04-18T05:10:27.536Z,46.00
2018-04-18T05:10:59.565Z,46.00
2018-04-18T05:11:32.354Z,46.00
2018-04-18T05:12:04.387Z,45.90
2018-04-18T05:12:36.417Z,45.90
2018-04-18T05:13:09.228Z,45.70
2018-04-18T05:13:41.250Z,45.60
2018-04-18T05:14:14.042Z,45.70
2018-04-18T05:14:46.056Z,45.70
2018-04-18T05:15:18.102Z,45.60
2018-04-18T05:15:50.912Z,45.60
2018-04-18T05:16:22.932Z,45.60
2018-04-18T05:16:55.741Z,45.60
2018-04-18T05:17:27.772Z,45.50
2018-04-18T05:17:59.790Z,45.50
2018-04-18T05:18:32.583Z,46.40
2018-04-18T05:19:05.399Z,45.60
2018-04-18T05:19:37.415Z,45.60
2018-04-18T05:20:09.459Z,45.60
2018-04-18T05:20:42.240Z,45.50
2018-04-18T05:21:14.309Z,45.50
2018-04-18T05:21:46.306Z,45.40
2018-04-18T05:22:19.103Z,45.70
2018-04-18T05:22:51.161Z,45.40
2018-04-18T05:23:23.185Z,45.40
2018-04-18T05:23:55.970Z,45.40
2018-04-18T05:24:28.000Z,45.30
2018-04-18T05:25:00.015Z,45.30
2018-04-18T05:25:32.113Z,45.30
2018-04-18T05:26:04.158Z,45.30
2018-04-18T05:26:36.967Z,45.20
2018-04-18T05:27:09.031Z,45.10
2018-04-18T05:27:41.085Z,45.10
2018-04-18T05:28:13.115Z,45.10
2018-04-18T05:28:45.217Z,45.00
2018-04-18T05:29:17.208Z,45.10
2018-04-18T05:29:49.218Z,45.10
2018-04-18T05:30:21.274Z,45.00
2018-04-18T05:30:53.284Z,45.00
2018-04-18T05:31:25.294Z,44.90
2018-04-18T05:31:58.083Z,45.00
2018-04-18T05:32:30.099Z,44.90
2018-04-18T05:33:02.904Z,45.00
2018-04-18T05:33:34.943Z,44.90
2018-04-18T05:34:07.760Z,44.80
2018-04-18T05:34:39.783Z,44.80
2018-04-18T05:35:11.794Z,44.80
2018-04-18T05:35:44.648Z,44.90
2018-04-18T05:36:16.669Z,44.80
2018-04-18T05:36:48.701Z,44.80
2018-04-18T05:37:20.741Z,44.80
2018-04-18T05:37:53.512Z,44.70
2018-04-18T05:38:25.536Z,44.70
2018-04-18T05:38:57.586Z,44.60
2018-04-18T05:39:29.615Z,44.70
2018-04-18T05:40:01.640Z,44.70
2018-04-18T05:40:33.655Z,44.60
2018-04-18T05:41:06.459Z,44.60
2018-04-18T05:41:38.484Z,44.60
2018-04-18T05:42:10.507Z,44.60
2018-04-18T05:42:42.548Z,44.50
2018-04-18T05:43:14.571Z,44.60
2018-04-18T05:43:46.597Z,44.40
2018-04-18T05:44:18.646Z,44.40
2018-04-18T05:44:50.707Z,44.40
2018-04-18T05:45:22.714Z,44.40
2018-04-18T05:45:54.779Z,44.30
2018-04-18T05:46:27.624Z,44.20
2018-04-18T05:46:59.650Z,44.20
2018-04-18T05:47:31.685Z,44.40
2018-04-18T05:48:03.706Z,44.20
2018-04-18T05:48:36.550Z,44.30
2018-04-18T05:49:08.535Z,44.20
2018-04-18T05:49:41.314Z,44.20
2018-04-18T05:50:13.332Z,44.20
2018-04-18T05:50:46.119Z,44.70
2018-04-18T05:51:18.919Z,44.20
2018-04-18T05:51:50.950Z,44.20
2018-04-18T05:52:22.974Z,44.20
2018-04-18T05:52:55.768Z,43.60
2018-04-18T05:53:28.546Z,44.20
2018-04-18T05:54:00.575Z,44.20
2018-04-18T05:54:33.354Z,44.20
2018-04-18T05:55:05.377Z,44.20
2018-04-18T05:55:37.398Z,44.20
2018-04-18T05:56:09.446Z,44.20
2018-04-18T05:56:41.459Z,44.20
2018-04-18T05:57:13.488Z,44.20
2018-04-18T05:57:46.278Z,44.20
2018-04-18T05:58:19.062Z,44.20
2018-04-18T05:58:51.075Z,44.20
2018-04-18T05:59:23.867Z,44.20
2018-04-18T05:59:55.886Z,44.20
2018-04-18T06:00:27.922Z,44.10
2018-04-18T06:00:59.954Z,44.00
2018-04-18T06:01:31.980Z,43.90
2018-04-18T06:02:04.003Z,44.00
2018-04-18T06:02:36.791Z,44.00
2018-04-18T06:03:08.811Z,43.90
2018-04-18T06:03:40.841Z,43.90
2018-04-18T06:04:12.869Z,44.20
2018-04-18T06:04:44.891Z,43.90
2018-04-18T06:05:16.966Z,43.80
2018-04-18T06:05:49.034Z,43.80
2018-04-18T06:06:21.104Z,43.80
2018-04-18T06:06:53.136Z,43.80
2018-04-18T06:07:25.152Z,43.80
2018-04-18T06:07:57.174Z,43.80
2018-04-18T06:08:29.199Z,43.80
2018-04-18T06:09:01.218Z,43.80
2018-04-18T06:09:33.241Z,43.70
2018-04-18T06:10:06.028Z,43.80
2018-04-18T06:10:38.048Z,43.80
2018-04-18T06:11:10.892Z,43.20
2018-04-18T06:11:43.641Z,43.80
2018-04-18T06:12:15.650Z,43.70
2018-04-18T06:12:48.436Z,43.80
2018-04-18T06:13:20.471Z,43.70
2018-04-18T06:13:53.247Z,43.60
2018-04-18T06:14:26.042Z,43.60
2018-04-18T06:14:58.054Z,43.60
2018-04-18T06:15:30.846Z,43.60
2018-04-18T06:16:02.871Z,43.60
2018-04-18T06:16:35.662Z,43.60
2018-04-18T06:17:08.431Z,43.60
2018-04-18T06:17:40.457Z,43.60
2018-04-18T06:18:13.254Z,43.60
2018-04-18T06:18:45.284Z,43.60
2018-04-18T06:19:17.404Z,43.50
2018-04-18T06:19:49.391Z,44.30
2018-04-18T06:20:22.185Z,43.50
2018-04-18T06:20:54.219Z,43.50
2018-04-18T06:21:26.259Z,43.50
2018-04-18T06:21:59.053Z,43.60
2018-04-18T06:22:31.165Z,43.60
2018-04-18T06:23:03.158Z,43.50
2018-04-18T06:23:35.182Z,43.50
2018-04-18T06:24:07.215Z,43.50
2018-04-18T06:24:39.234Z,43.50
2018-04-18T06:25:11.249Z,43.40
2018-04-18T06:25:43.340Z,43.40
2018-04-18T06:26:15.356Z,43.50
2018-04-18T06:26:47.372Z,43.50
2018-04-18T06:27:19.392Z,43.50
2018-04-18T06:27:51.437Z,43.40
2018-04-18T06:28:23.453Z,43.40
2018-04-18T06:28:56.263Z,43.40
2018-04-18T06:29:28.279Z,43.40
2018-04-18T06:30:00.325Z,43.40
2018-04-18T06:30:33.157Z,43.40
2018-04-18T06:31:05.177Z,43.30
2018-04-18T06:31:37.219Z,43.40
2018-04-18T06:32:09.246Z,43.40
2018-04-18T06:32:42.029Z,43.40
2018-04-18T06:33:14.051Z,43.30
2018-04-18T06:33:46.075Z,43.30
2018-04-18T06:34:18.111Z,43.30
2018-04-18T06:34:50.132Z,43.30
2018-04-18T06:35:22.170Z,43.30
2018-04-18T06:35:54.967Z,43.10
2018-04-18T06:36:26.988Z,43.10
2018-04-18T06:36:59.779Z,43.10
2018-04-18T06:37:32.051Z,43.10
2018-04-18T06:38:04.061Z,43.10
2018-04-18T06:38:36.859Z,43.10
2018-04-18T06:39:08.878Z,43.10
2018-04-18T06:39:41.673Z,43.20
2018-04-18T06:40:13.699Z,43.10
2018-04-18T06:40:46.488Z,43.10
2018-04-18T06:41:18.511Z,43.00
2018-04-18T06:41:50.532Z,43.00
2018-04-18T06:42:22.543Z,43.00
2018-04-18T06:42:54.566Z,43.00
2018-04-18T06:43:27.379Z,43.00
2018-04-18T06:43:59.403Z,42.90
2018-04-18T06:44:31.442Z,42.90
2018-04-18T06:45:04.250Z,42.90
2018-04-18T06:45:36.260Z,42.90
2018-04-18T06:46:09.078Z,42.90
2018-04-18T06:46:41.091Z,42.90
2018-04-18T06:47:13.891Z,43.00
2018-04-18T06:47:45.934Z,42.90
2018-04-18T06:48:17.962Z,42.90
2018-04-18T06:48:50.785Z,42.80
2018-04-18T06:49:22.787Z,42.80
2018-04-18T06:49:54.810Z,42.80
2018-04-18T06:50:26.853Z,42.70
2018-04-18T06:50:58.894Z,42.70
2018-04-18T06:51:30.922Z,42.80
2018-04-18T06:52:02.938Z,42.70
2018-04-18T06:52:35.724Z,42.70
2018-04-18T06:53:07.745Z,42.60
2018-04-18T06:53:40.530Z,42.70
2018-04-18T06:54:12.562Z,42.60
2018-04-18T06:54:44.580Z,42.60